Time;durP1;ratioP1;P1;durP2;ratioP2;P2;SDS_P1;SDS_P2;PMS_P1;PMS_P2;Temp;Humidity;BMP_temperature;BMP_pressure;BME280_temperature;BME280_humidity;BME280_pressure;Samples;Min_cycle;Max_cycle;Signal;HPM_P1;HPM_P2
2024/03/26 09:47:02;;;;;;;10.90;4.70;;;;;;;16.11;39.54;98212.93;80160;1299;3013264;-62
2024/03/26 09:49:28;;;;;;;8.40;4.80;;;;;;;16.25;39.51;98216.38;79106;1304;3015431;-60
2024/03/26 09:51:55;;;;;;;6.60;4.50;;;;;;;16.33;38.99;98217.02;79015;1301;3011388;-64
2024/03/26 09:54:23;;;;;;;7.50;4.40;;;;;;;16.25;39.02;98215.38;77857;1308;3052578;-61
2024/03/26 09:56:51;;;;;;;7.40;4.70;;;;;;;16.19;39.10;98214.73;78975;1307;3021228;-63
2024/03/26 09:59:18;;;;;;;9.80;4.90;;;;;;;16.38;39.10;98217.14;78905;1302;3011239;-60
2024/03/26 10:01:46;;;;;;;6.40;4.30;;;;;;;16.57;38.36;98222.77;77985;1301;3049736;-64
2024/03/26 10:04:13;;;;;;;8.00;4.80;;;;;;;16.72;38.54;98222.63;79359;1299;3013420;-61
2024/03/26 10:06:43;;;;;;;7.00;4.60;;;;;;;16.96;37.74;98229.73;79435;1302;3012781;-65
2024/03/26 10:09:11;;;;;;;9.10;4.70;;;;;;;16.90;37.22;98226.05;78239;1298;3052591;-62
2024/03/26 10:11:38;;;;;;;10.30;4.90;;;;;;;16.92;37.47;98227.04;79243;1305;3013149;-61
2024/03/26 10:14:04;;;;;;;9.40;4.80;;;;;;;16.95;37.44;98231.14;79773;1299;3011741;-61
2024/03/26 10:16:40;;;;;;;6.80;4.20;;;;;;;17.01;37.25;98230.56;78407;1302;3025897;-63
2024/03/26 10:19:09;;;;;;;11.10;5.00;;;;;;;16.90;37.22;98231.92;79333;1302;3012827;-62
2024/03/26 10:21:44;;;;;;;10.60;4.60;;;;;;;16.73;37.81;98240.54;79271;1304;3013123;-65
2024/03/26 10:24:12;;;;;;;7.70;4.70;;;;;;;16.74;37.60;98243.62;78080;1304;3051781;-62
2024/03/26 10:26:39;;;;;;;9.60;4.70;;;;;;;16.65;37.48;98248.70;79354;1301;3013697;-64
2024/03/26 10:29:05;;;;;;;11.30;4.60;;;;;;;16.68;37.88;98249.10;79602;1299;3013639;-62
2024/03/26 10:31:34;;;;;;;11.10;4.40;;;;;;;16.64;37.87;98250.59;78089;1304;3026182;-63
2024/03/26 10:34:02;;;;;;;9.90;5.10;;;;;;;16.62;37.55;98249.12;79199;1299;3013763;-63
2024/03/26 10:36:32;;;;;;;8.00;4.70;;;;;;;16.42;37.74;98256.75;78875;1299;3011777;-61
2024/03/26 10:38:58;;;;;;;9.70;4.60;;;;;;;16.34;37.86;98259.77;79877;1298;3012806;-63
2024/03/26 10:41:34;;;;;;;10.50;4.60;;;;;;;16.21;38.09;98265.80;79783;1297;3013063;-60
2024/03/26 10:44:03;;;;;;;9.10;5.30;;;;;;;16.11;38.26;98266.29;78573;1298;3070358;-60
2024/03/26 10:46:30;;;;;;;8.10;4.40;;;;;;;15.99;38.73;98266.55;79630;1296;3013515;-62
2024/03/26 10:48:58;;;;;;;11.20;4.80;;;;;;;16.06;38.57;98265.92;79614;1297;3011951;-63
2024/03/26 10:51:26;;;;;;;8.90;5.00;;;;;;;15.93;38.59;98268.97;78400;1297;3053232;-60
2024/03/26 10:53:57;;;;;;;9.90;5.30;;;;;;;15.93;38.77;98266.48;79495;1301;3018797;-61
2024/03/26 10:56:29;;;;;;;10.80;4.30;;;;;;;15.96;38.70;98268.98;78218;1301;3053807;-60
2024/03/26 10:58:57;;;;;;;11.50;4.60;;;;;;;15.97;38.42;98265.95;80359;1298;3013128;-61
2024/03/26 11:01:26;;;;;;;10.30;4.50;;;;;;;15.88;38.79;98268.40;78244;1301;3051513;-61
2024/03/26 11:03:52;;;;;;;9.40;5.30;;;;;;;15.83;38.92;98267.83;80053;1294;3012818;-63
2024/03/26 11:06:21;;;;;;;7.60;5.50;;;;;;;15.82;39.11;98267.73;79714;1296;3012133;-65
2024/03/26 11:09:03;;;;;;;7.60;4.60;;;;;;;15.87;39.01;98268.53;78885;1296;3050353;-61
2024/03/26 11:11:32;;;;;;;9.80;5.70;;;;;;;15.88;38.93;98268.73;78665;1298;3052530;-61
2024/03/26 11:13:59;;;;;;;8.70;4.80;;;;;;;15.98;38.81;98267.63;80025;1299;3013090;-62
2024/03/26 11:16:39;;;;;;;7.90;5.00;;;;;;;16.05;38.72;98266.86;79681;1298;3011564;-58
2024/03/26 11:19:20;;;;;;;8.20;4.90;;;;;;;16.10;38.52;98266.58;78308;1293;3056635;-60
2024/03/26 11:21:49;;;;;;;11.40;4.80;;;;;;;16.13;38.61;98268.48;78460;1295;3049310;-63
2024/03/26 11:24:25;;;;;;;11.90;5.30;;;;;;;16.22;38.63;98273.06;80230;1296;3013580;-60
2024/03/26 11:26:53;;;;;;;11.80;5.60;;;;;;;16.28;38.15;98276.56;78499;1298;3052268;-64
2024/03/26 11:29:19;;;;;;;10.30;4.90;;;;;;;16.37;38.13;98279.13;79371;1300;3020837;-61
2024/03/26 11:31:46;;;;;;;10.50;5.60;;;;;;;16.48;37.95;98277.87;79975;1298;3011648;-65
2024/03/26 11:34:14;;;;;;;11.00;5.40;;;;;;;16.50;37.56;98275.87;78545;1298;3028822;-64
2024/03/26 11:36:41;;;;;;;10.60;5.30;;;;;;;16.50;37.16;98275.66;79505;1293;3012853;-63
2024/03/26 11:39:09;;;;;;;13.00;5.40;;;;;;;16.52;37.20;98275.08;80492;1293;3011646;-62
2024/03/26 11:41:37;;;;;;;13.00;5.40;;;;;;;16.57;37.34;98279.20;79272;1298;3051834;-63
2024/03/26 11:44:04;;;;;;;11.20;5.50;;;;;;;16.40;37.51;98283.27;79665;1297;3020740;-63
2024/03/26 11:46:31;;;;;;;18.40;6.30;;;;;;;16.48;37.38;98278.52;79613;1296;3011729;-64
2024/03/26 11:49:03;;;;;;;24.50;6.20;;;;;;;16.50;36.82;98281.83;78390;1298;3028636;-62
2024/03/26 11:51:30;;;;;;;15.50;5.80;;;;;;;16.58;36.41;98285.80;79566;1296;3011540;-60
2024/03/26 11:53:58;;;;;;;15.00;5.70;;;;;;;16.63;36.06;98287.44;78718;1297;3051673;-65
2024/03/26 11:56:25;;;;;;;18.10;5.30;;;;;;;16.59;36.01;98290.25;79366;1300;3013913;-65
2024/03/26 11:58:51;;;;;;;11.70;4.50;;;;;;;16.53;35.29;98290.00;80493;1295;3011729;-59
2024/03/26 12:01:24;;;;;;;8.20;4.60;;;;;;;16.49;35.00;98286.06;78317;1294;3025866;-62
2024/03/26 12:03:55;;;;;;;8.30;4.60;;;;;;;16.56;34.80;98287.41;79839;1296;3013105;-65
2024/03/26 12:06:24;;;;;;;11.30;4.60;;;;;;;16.57;35.20;98286.44;78922;1298;3056131;-64
2024/03/26 12:08:52;;;;;;;9.70;4.20;;;;;;;16.59;35.08;98288.33;79668;1297;3012869;-65
2024/03/26 12:11:19;;;;;;;8.50;4.10;;;;;;;16.94;34.82;98289.14;79398;1299;3013598;-61
2024/03/26 12:13:47;;;;;;;6.70;4.40;;;;;;;16.93;34.56;98286.05;78476;1297;3054666;-60
2024/03/26 12:16:27;;;;;;;6.80;3.90;;;;;;;16.82;33.77;98289.27;79682;1295;3012944;-63
2024/03/26 12:18:55;;;;;;;8.00;3.40;;;;;;;16.69;33.10;98289.28;78438;1298;3051948;-58
2024/03/26 12:21:22;;;;;;;7.60;3.50;;;;;;;16.54;33.20;98291.12;79617;1298;3013394;-60
2024/03/26 12:23:52;;;;;;;6.60;3.40;;;;;;;16.38;33.59;98290.45;79652;1292;3013508;-60
2024/03/26 12:26:20;;;;;;;9.00;3.70;;;;;;;16.36;33.96;98291.57;78276;1298;3049440;-62
2024/03/26 12:28:47;;;;;;;6.50;3.60;;;;;;;16.48;34.15;98297.59;80221;1298;3013161;-65
2024/03/26 12:31:16;;;;;;;5.90;3.60;;;;;;;16.57;34.12;98298.06;79644;1297;3013639;-63
2024/03/26 12:33:44;;;;;;;10.60;4.20;;;;;;;16.46;34.12;98295.52;78094;1296;3051645;-66
2024/03/26 12:36:11;;;;;;;6.90;3.90;;;;;;;16.38;34.60;98302.68;79750;1296;3012904;-60
2024/03/26 12:38:39;;;;;;;13.20;4.80;;;;;;;16.30;34.86;98305.09;79616;1296;3013449;-64
2024/03/26 12:41:07;;;;;;;8.70;4.60;;;;;;;16.35;35.29;98305.33;78343;1297;3049804;-64
2024/03/26 12:43:33;;;;;;;8.20;4.50;;;;;;;16.51;35.06;98307.88;79530;1295;3013530;-61
2024/03/26 12:46:01;;;;;;;13.60;5.20;;;;;;;16.64;34.62;98308.65;79610;1298;3011566;-60
2024/03/26 12:48:28;;;;;;;11.30;4.90;;;;;;;16.74;34.30;98310.79;78369;1299;3026158;-61
2024/03/26 12:50:55;;;;;;;10.40;4.40;;;;;;;16.80;34.12;98311.67;80104;1295;3013273;-66
2024/03/26 12:53:22;;;;;;;7.40;4.30;;;;;;;16.86;33.96;98316.34;79506;1301;3011679;-62
2024/03/26 12:55:50;;;;;;;9.90;5.00;;;;;;;16.98;33.47;98317.41;78376;1298;3050128;-64
2024/03/26 12:58:17;;;;;;;9.10;4.50;;;;;;;17.18;33.32;98320.10;79505;1303;3013216;-60
2024/03/26 13:00:44;;;;;;;10.20;4.80;;;;;;;17.27;33.17;98322.08;79580;1298;3011596;-60
2024/03/26 13:03:12;;;;;;;9.40;4.30;;;;;;;17.46;33.07;98318.80;78250;1301;3027968;-65
2024/03/26 13:05:38;;;;;;;8.20;4.30;;;;;;;17.38;32.44;98325.89;80199;1295;3012984;-67
2024/03/26 13:08:05;;;;;;;9.30;4.60;;;;;;;17.01;32.90;98327.89;79940;1295;3011490;-65
2024/03/26 13:10:34;;;;;;;9.30;4.30;;;;;;;16.82;33.32;98329.27;78398;1295;3048753;-62
2024/03/26 13:13:01;;;;;;;7.00;4.00;;;;;;;16.77;33.06;98336.39;79659;1297;3013021;-62
2024/03/26 13:15:27;;;;;;;8.00;4.50;;;;;;;16.71;33.12;98336.63;79929;1295;3011706;-60
2024/03/26 13:17:55;;;;;;;8.20;4.30;;;;;;;16.59;33.56;98340.81;78923;1298;3028424;-61
2024/03/26 13:20:22;;;;;;;10.00;4.50;;;;;;;16.49;33.54;98344.85;79649;1298;3013336;-59
2024/03/26 13:22:49;;;;;;;9.60;4.50;;;;;;;16.49;33.65;98346.14;79745;1298;3011311;-62
2024/03/26 13:25:17;;;;;;;9.40;4.90;;;;;;;16.40;33.58;98347.16;78348;1297;3027604;-58
2024/03/26 13:27:44;;;;;;;8.40;3.90;;;;;;;16.38;33.57;98346.19;79685;1298;3012856;-63
2024/03/26 13:30:11;;;;;;;10.50;4.40;;;;;;;16.29;34.04;98351.14;79530;1298;3012218;-63
2024/03/26 13:32:39;;;;;;;10.40;4.60;;;;;;;16.27;34.02;98354.90;78269;1295;3053004;-63
2024/03/26 13:35:09;;;;;;;9.20;4.30;;;;;;;16.27;34.18;98355.77;79843;1298;3013089;-59
2024/03/26 13:37:38;;;;;;;11.40;4.60;;;;;;;16.18;34.16;98360.77;79043;1295;3011996;-61
2024/03/26 13:40:06;;;;;;;7.30;4.80;;;;;;;16.15;34.29;98369.77;79756;1293;3018586;-62
2024/03/26 13:42:33;;;;;;;9.90;4.60;;;;;;;16.11;34.25;98373.95;79662;1298;3013598;-65
2024/03/26 13:45:02;;;;;;;13.70;4.50;;;;;;;16.01;35.89;98379.22;78380;1298;3052625;-61
2024/03/26 13:47:29;;;;;;;10.80;4.70;;;;;;;15.73;39.83;98370.87;79573;1298;3013768;-64
2024/03/26 13:49:55;;;;;;;9.80;5.60;;;;;;;15.43;41.43;98378.23;79517;1293;3013112;-60
2024/03/26 13:52:24;;;;;;;8.10;5.40;;;;;;;15.14;43.01;98381.71;78370;1296;3049424;-60
2024/03/26 13:54:50;;;;;;;8.90;5.90;;;;;;;14.97;44.35;98393.61;79645;1296;3013114;-64
2024/03/26 13:57:17;;;;;;;12.70;6.70;;;;;;;14.83;45.43;98407.83;80149;1295;3013161;-61
2024/03/26 13:59:45;;;;;;;11.30;5.70;;;;;;;14.66;45.72;98409.35;78404;1295;3025689;-61
2024/03/26 14:02:12;;;;;;;9.50;4.90;;;;;;;14.44;47.46;98415.74;79602;1293;3018667;-62
2024/03/26 14:04:38;;;;;;;11.60;4.70;;;;;;;14.35;48.62;98419.27;79714;1298;3011457;-62
2024/03/26 14:07:06;;;;;;;8.40;4.20;;;;;;;14.22;50.49;98425.59;78600;1298;3028744;-63
2024/03/26 14:09:37;;;;;;;6.80;4.60;;;;;;;14.12;51.71;98430.86;79722;1298;3019095;-63
2024/03/26 14:12:06;;;;;;;12.70;5.10;;;;;;;13.97;52.99;98433.35;79211;1297;3011888;-61
2024/03/26 14:14:35;;;;;;;10.20;5.00;;;;;;;13.76;53.99;98443.67;79612;1298;3012949;-60
2024/03/26 14:17:01;;;;;;;8.00;4.60;;;;;;;13.66;54.55;98445.06;80019;1295;3012080;-62
2024/03/26 14:19:30;;;;;;;10.10;5.10;;;;;;;13.61;54.55;98449.44;78586;1293;3052156;-62
2024/03/26 14:21:57;;;;;;;7.70;4.40;;;;;;;13.49;55.20;98451.17;79672;1296;3013627;-65
2024/03/26 14:24:24;;;;;;;8.20;5.00;;;;;;;13.38;55.45;98451.91;79773;1296;3012607;-62
2024/03/26 14:26:52;;;;;;;7.90;4.90;;;;;;;13.33;55.25;98450.06;78348;1298;3049811;-62
2024/03/26 14:29:23;;;;;;;8.20;3.80;;;;;;;13.34;55.10;98453.84;79618;1298;3013394;-63
2024/03/26 14:31:51;;;;;;;7.60;4.30;;;;;;;13.40;54.43;98455.59;78552;1295;3069287;-63
2024/03/26 14:34:18;;;;;;;9.70;4.70;;;;;;;13.43;53.92;98454.34;79726;1293;3013328;-63
2024/03/26 14:36:45;;;;;;;7.90;4.60;;;;;;;13.34;54.12;98458.62;80030;1292;3013243;-64
2024/03/26 14:39:13;;;;;;;7.60;4.20;;;;;;;13.40;54.12;98459.36;78372;1295;3026608;-62
2024/03/26 14:41:39;;;;;;;8.40;4.70;;;;;;;13.39;54.10;98459.56;79689;1295;3012412;-65
2024/03/26 14:44:08;;;;;;;9.80;5.60;;;;;;;13.37;53.95;98460.64;79634;1298;3012832;-62
2024/03/26 14:46:36;;;;;;;11.00;6.10;;;;;;;13.37;54.46;98461.93;78684;1295;3070599;-63
2024/03/26 14:49:02;;;;;;;10.90;6.20;;;;;;;13.30;54.46;98464.77;79801;1295;3013538;-65
2024/03/26 14:51:30;;;;;;;11.30;6.10;;;;;;;13.29;55.05;98464.51;80457;1292;3013611;-65
2024/03/26 14:53:58;;;;;;;9.90;6.00;;;;;;;13.33;54.43;98468.23;78666;1295;3028559;-62
2024/03/26 14:56:25;;;;;;;13.70;6.20;;;;;;;13.32;54.14;98471.41;79980;1298;3014133;-63
2024/03/26 14:58:51;;;;;;;10.90;5.50;;;;;;;13.29;54.64;98476.47;80071;1294;3011392;-61
2024/03/26 15:01:21;;;;;;;9.70;5.70;;;;;;;13.29;54.11;98476.42;78731;1295;3067128;-62
2024/03/26 15:03:48;;;;;;;10.60;5.10;;;;;;;13.24;53.62;98478.09;80809;1293;3011380;-62
2024/03/26 15:06:14;;;;;;;10.50;5.40;;;;;;;13.21;54.10;98481.30;82119;1292;3011590;-63
2024/03/26 15:08:45;;;;;;;11.30;5.40;;;;;;;13.19;53.75;98483.13;80795;1296;3053000;-65
2024/03/26 15:11:12;;;;;;;10.90;5.40;;;;;;;13.17;53.56;98489.23;82048;1293;3011320;-64
2024/03/26 15:13:41;;;;;;;8.90;5.20;;;;;;;13.16;53.68;98487.20;80892;1295;3011525;-63
2024/03/26 15:16:07;;;;;;;14.10;6.40;;;;;;;13.16;53.18;98490.23;80850;1292;3019003;-64
2024/03/26 15:18:34;;;;;;;15.20;7.40;;;;;;;13.15;52.39;98489.28;79622;1298;3011564;-62
2024/03/26 15:21:02;;;;;;;16.60;7.40;;;;;;;13.12;52.44;98492.88;78548;1297;3028077;-60
2024/03/26 15:23:29;;;;;;;10.50;6.00;;;;;;;13.13;51.92;98490.83;79603;1296;3014054;-62
2024/03/26 15:25:56;;;;;;;9.90;5.00;;;;;;;13.12;51.76;98491.66;79699;1296;3012747;-62
2024/03/26 15:33:57;;;;;;;12.30;7.50;;;;;;;12.88;52.06;98492.84;78126;1296;3069040;-65
2024/03/26 15:36:23;;;;;;;10.00;6.70;;;;;;;12.87;51.73;98498.30;79614;1293;3013316;-58
2024/03/26 15:38:50;;;;;;;10.60;5.50;;;;;;;12.84;51.96;98505.58;79561;1295;3013926;-61
2024/03/26 15:41:18;;;;;;;12.90;8.10;;;;;;;12.78;52.63;98502.41;78495;1295;3028663;-64
2024/03/26 15:43:44;;;;;;;16.50;9.80;;;;;;;12.85;51.78;98504.66;79719;1292;3012756;-63
2024/03/26 15:46:11;;;;;;;20.00;11.30;;;;;;;12.79;51.74;98503.96;79673;1297;3012814;-62
2024/03/26 15:48:39;;;;;;;17.50;11.40;;;;;;;12.76;52.48;98507.56;78568;1295;3029601;-63
2024/03/26 15:51:06;;;;;;;17.90;11.40;;;;;;;12.71;52.43;98504.45;79799;1296;3013025;-65
2024/03/26 15:53:34;;;;;;;17.00;9.90;;;;;;;12.68;52.95;98510.66;79728;1297;3011728;-64
2024/03/26 15:56:02;;;;;;;22.50;9.70;;;;;;;12.66;53.39;98510.00;78342;1297;3052841;-60
2024/03/26 15:58:29;;;;;;;15.50;9.00;;;;;;;12.62;52.64;98514.70;79607;1297;3014072;-60
2024/03/26 16:00:56;;;;;;;22.50;10.70;;;;;;;12.61;51.99;98518.98;79543;1296;3011445;-63
2024/03/26 16:03:25;;;;;;;17.00;9.60;;;;;;;12.59;52.44;98520.19;78316;1293;3068918;-63
2024/03/26 16:05:52;;;;;;;11.50;5.40;;;;;;;12.56;52.23;98523.61;79843;1295;3012606;-61
2024/03/26 16:08:18;;;;;;;16.80;5.80;;;;;;;12.43;51.46;98520.15;79646;1293;3011875;-63
2024/03/26 16:10:50;;;;;;;6.80;4.10;;;;;;;12.41;51.17;98521.85;78480;1295;3053319;-61
2024/03/26 16:13:16;;;;;;;10.40;4.90;;;;;;;12.47;51.23;98520.89;79540;1295;3011859;-60
2024/03/26 16:15:44;;;;;;;8.00;4.40;;;;;;;12.47;51.51;98525.95;78406;1297;3026913;-61
2024/03/26 16:18:11;;;;;;;9.50;4.30;;;;;;;12.51;50.98;98525.45;79943;1297;3013539;-61
2024/03/26 16:20:38;;;;;;;8.30;4.70;;;;;;;12.46;51.56;98526.71;79926;1297;3013249;-61
2024/03/26 16:23:06;;;;;;;12.30;4.60;;;;;;;12.36;51.58;98527.33;78707;1295;3026269;-60
2024/03/26 16:25:32;;;;;;;11.50;5.00;;;;;;;12.20;51.97;98531.14;79901;1297;3013057;-60
2024/03/26 16:27:59;;;;;;;8.60;5.00;;;;;;;12.20;51.20;98527.27;79540;1295;3011273;-64
2024/03/26 16:30:27;;;;;;;22.30;6.20;;;;;;;12.19;51.60;98532.61;78356;1297;3025199;-60
2024/03/26 16:32:54;;;;;;;15.60;6.50;;;;;;;12.19;51.52;98538.80;79748;1293;3018960;-60
2024/03/26 16:35:21;;;;;;;12.50;6.40;;;;;;;12.12;52.04;98542.86;79596;1293;3011560;-65
2024/03/26 16:37:49;;;;;;;22.00;9.30;;;;;;;12.07;51.94;98546.23;78294;1297;3056835;-65
2024/03/26 16:40:16;;;;;;;24.30;16.00;;;;;;;12.00;52.60;98550.27;79559;1295;3018498;-64
2024/03/26 16:42:43;;;;;;;25.60;12.00;;;;;;;12.02;52.74;98551.59;79549;1297;3011736;-62
2024/03/26 16:45:11;;;;;;;26.60;11.00;;;;;;;12.04;53.04;98556.15;78290;1298;3052485;-62
2024/03/26 16:47:37;;;;;;;17.80;8.50;;;;;;;12.02;53.47;98558.26;79544;1298;3013710;-64
2024/03/26 16:50:04;;;;;;;14.90;7.90;;;;;;;11.90;54.00;98562.29;79694;1295;3011465;-65
2024/03/26 16:52:33;;;;;;;18.70;7.40;;;;;;;11.84;54.29;98566.67;78956;1295;3028170;-65
2024/03/26 16:54:59;;;;;;;17.40;6.60;;;;;;;11.82;54.24;98570.00;79696;1296;3012940;-64
2024/03/26 16:57:26;;;;;;;12.30;6.90;;;;;;;11.74;54.27;98575.86;79635;1293;3011879;-61
2024/03/26 16:59:54;;;;;;;14.80;6.40;;;;;;;11.73;54.56;98578.40;78307;1297;3028844;-66
2024/03/26 17:02:21;;;;;;;10.80;5.70;;;;;;;11.66;55.05;98580.34;79776;1298;3013376;-61
2024/03/26 17:04:47;;;;;;;12.40;6.60;;;;;;;11.63;55.00;98581.64;79634;1292;3013515;-62
2024/03/26 17:07:15;;;;;;;14.30;6.40;;;;;;;11.63;54.97;98585.85;78435;1295;3027943;-64
2024/03/26 17:09:42;;;;;;;16.10;7.70;;;;;;;11.63;54.95;98588.50;79596;1295;3013181;-66
2024/03/26 17:12:08;;;;;;;19.40;8.70;;;;;;;11.56;55.24;98586.02;79613;1296;3011883;-62
2024/03/26 17:14:36;;;;;;;22.50;10.00;;;;;;;11.55;55.37;98596.50;78312;1296;3026348;-64
2024/03/26 17:17:03;;;;;;;27.50;11.70;;;;;;;11.54;55.85;98594.30;79764;1297;3013497;-62
2024/03/26 17:19:30;;;;;;;27.60;13.80;;;;;;;11.55;55.75;98603.34;79515;1297;3011484;-61
2024/03/26 17:21:58;;;;;;;35.20;15.10;;;;;;;11.47;56.00;98607.45;78500;1292;3026468;-64
2024/03/26 17:24:25;;;;;;;34.50;16.30;;;;;;;11.43;56.38;98612.48;79447;1296;3019079;-63
2024/03/26 17:26:51;;;;;;;33.60;15.50;;;;;;;11.44;56.29;98617.14;79785;1297;3011578;-64
2024/03/26 17:29:19;;;;;;;33.30;16.70;;;;;;;11.49;56.18;98611.49;78423;1296;3024845;-63
2024/03/26 17:31:46;;;;;;;35.10;16.10;;;;;;;11.50;56.13;98618.77;80071;1295;3013187;-62
2024/03/26 17:34:13;;;;;;;50.40;18.70;;;;;;;11.49;56.34;98622.69;80093;1295;3012845;-62
2024/03/26 17:36:41;;;;;;;43.40;17.80;;;;;;;11.45;56.54;98626.77;78494;1297;3026738;-63
2024/03/26 17:39:09;;;;;;;36.30;17.80;;;;;;;11.43;56.58;98628.77;79565;1293;3013352;-63
2024/03/26 17:41:36;;;;;;;38.70;18.10;;;;;;;11.50;56.53;98635.27;80476;1297;3011730;-63
2024/03/26 17:44:04;;;;;;;43.90;18.60;;;;;;;11.55;56.74;98640.50;78410;1297;3052648;-63
2024/03/26 17:46:31;;;;;;;44.40;19.00;;;;;;;11.56;56.91;98644.63;80065;1298;3014717;-63
2024/03/26 17:48:57;;;;;;;51.60;21.40;;;;;;;11.56;57.19;98647.44;79544;1297;3011510;-62
2024/03/26 17:51:25;;;;;;;54.20;23.00;;;;;;;11.55;57.42;98656.30;78419;1297;3056259;-60
2024/03/26 17:53:53;;;;;;;40.90;19.80;;;;;;;11.52;57.42;98656.00;80022;1295;3018624;-63
2024/03/26 17:56:19;;;;;;;35.20;16.60;;;;;;;11.50;57.47;98659.66;81392;1294;3011824;-62
2024/03/26 17:58:48;;;;;;;30.50;15.80;;;;;;;11.49;57.61;98659.23;78719;1297;3052633;-61
2024/03/26 18:01:15;;;;;;;30.20;14.60;;;;;;;11.43;57.97;98658.79;79632;1298;3014764;-63
2024/03/26 18:03:41;;;;;;;34.90;15.20;;;;;;;11.35;58.37;98659.55;79872;1302;3011346;-63
2024/03/26 18:06:16;;;;;;;34.50;15.50;;;;;;;11.30;58.38;98661.88;78118;1301;3056178;-63
2024/03/26 18:08:42;;;;;;;31.10;14.10;;;;;;;11.28;58.52;98674.81;79651;1298;3011612;-64
2024/03/26 18:11:10;;;;;;;25.60;12.90;;;;;;;11.18;58.94;98689.23;78272;1296;3053716;-60
2024/03/26 18:13:38;;;;;;;31.40;13.80;;;;;;;11.12;59.38;98696.68;79674;1301;3018452;-64
2024/03/26 18:16:05;;;;;;;27.30;14.60;;;;;;;11.01;60.14;98699.48;79381;1297;3011544;-62
2024/03/26 18:18:33;;;;;;;31.90;15.50;;;;;;;10.98;60.69;98701.28;77977;1301;3067290;-62
2024/03/26 18:21:01;;;;;;;35.20;15.60;;;;;;;10.97;60.79;98701.30;79221;1300;3013257;-64
2024/03/26 18:23:28;;;;;;;31.40;15.00;;;;;;;10.96;60.89;98702.79;79410;1296;3012894;-62
2024/03/26 18:26:06;;;;;;;29.20;14.10;;;;;;;10.88;61.44;98703.17;78158;1301;3055085;-66
2024/03/26 18:28:35;;;;;;;30.40;14.50;;;;;;;10.78;61.73;98702.91;78029;1301;3050578;-63
2024/03/26 18:31:05;;;;;;;26.70;13.60;;;;;;;10.68;62.36;98702.55;79588;1301;3013691;-61
2024/03/26 18:33:34;;;;;;;27.30;14.90;;;;;;;10.66;62.57;98702.05;77968;1298;3068489;-62
2024/03/26 18:36:01;;;;;;;25.90;13.30;;;;;;;10.60;63.05;98696.70;79867;1297;3013593;-64
2024/03/26 18:38:29;;;;;;;29.60;14.50;;;;;;;10.51;63.41;98696.13;79641;1296;3011650;-64
2024/03/26 18:41:05;;;;;;;31.00;16.10;;;;;;;10.38;64.01;98699.66;78579;1298;3053648;-60
2024/03/26 18:43:34;;;;;;;35.30;16.10;;;;;;;10.28;64.59;98695.27;78002;1300;3050632;-62
2024/03/26 18:46:10;;;;;;;37.60;15.50;;;;;;;10.21;64.86;98700.50;79404;1297;3013930;-63
2024/03/26 18:48:39;;;;;;;30.20;15.20;;;;;;;10.23;64.90;98704.70;78078;1298;3068925;-65
2024/03/26 18:51:06;;;;;;;30.70;16.20;;;;;;;10.14;65.36;98706.27;79463;1298;3019112;-62
2024/03/26 18:53:34;;;;;;;33.20;16.20;;;;;;;10.10;65.66;98709.51;79379;1301;3013500;-61
2024/03/26 18:56:03;;;;;;;28.30;15.90;;;;;;;10.08;65.89;98712.77;78091;1300;3054407;-64
2024/03/26 18:58:31;;;;;;;28.80;15.30;;;;;;;10.02;66.41;98718.98;79616;1297;3012902;-63
2024/03/26 19:01:15;;;;;;;27.90;14.20;;;;;;;10.04;66.33;98720.73;79566;1301;3011579;-62
2024/03/26 19:03:46;;;;;;;25.50;13.90;;;;;;;10.02;66.41;98721.28;78395;1299;3069482;-60
2024/03/26 19:06:13;;;;;;;24.50;13.70;;;;;;;9.99;66.59;98721.86;79844;1297;3013298;-61
2024/03/26 19:08:42;;;;;;;23.00;12.00;;;;;;;9.96;66.77;98724.70;78189;1297;3027645;-61
2024/03/26 19:11:09;;;;;;;26.60;13.30;;;;;;;9.91;66.88;98724.45;79529;1298;3013013;-62
2024/03/26 19:13:36;;;;;;;19.30;11.40;;;;;;;9.85;67.37;98727.66;79502;1298;3011340;-62
2024/03/26 19:16:05;;;;;;;21.00;10.50;;;;;;;9.88;67.37;98732.38;78087;1298;3053501;-59
2024/03/26 19:18:32;;;;;;;21.20;10.30;;;;;;;9.89;67.06;98734.53;79394;1297;3014389;-59
2024/03/26 19:21:00;;;;;;;19.00;10.70;;;;;;;9.82;67.47;98738.77;79299;1298;3011840;-60
2024/03/26 19:23:30;;;;;;;21.60;10.50;;;;;;;9.83;67.35;98741.45;78289;1300;3056494;-62
2024/03/26 19:26:04;;;;;;;19.10;11.60;;;;;;;9.82;67.32;98747.85;79269;1301;3011522;-61
2024/03/26 19:28:32;;;;;;;18.80;10.50;;;;;;;9.73;67.82;98755.77;78298;1298;3052616;-62
2024/03/26 19:31:00;;;;;;;17.70;10.30;;;;;;;9.71;68.05;98761.16;79441;1297;3013265;-62
2024/03/26 19:33:27;;;;;;;16.50;9.30;;;;;;;9.65;68.35;98764.02;79523;1301;3011625;-60
2024/03/26 19:36:01;;;;;;;14.50;8.30;;;;;;;9.65;68.53;98764.71;78492;1298;3067948;-63
2024/03/26 19:38:30;;;;;;;16.70;8.40;;;;;;;9.65;68.61;98768.60;79025;1298;3011796;-60
2024/03/26 19:40:58;;;;;;;14.70;8.60;;;;;;;9.70;68.54;98766.46;79514;1297;3013091;-64
2024/03/26 19:43:24;;;;;;;14.80;8.70;;;;;;;9.70;68.31;98767.90;79218;1298;3011506;-65
2024/03/26 19:46:09;;;;;;;15.60;9.30;;;;;;;9.63;68.68;98772.95;78063;1297;3053687;-60
2024/03/26 19:48:37;;;;;;;18.40;8.50;;;;;;;9.56;68.98;98780.04;77957;1301;3050947;-62
2024/03/26 19:51:07;;;;;;;14.20;8.70;;;;;;;9.50;69.22;98781.86;79441;1300;3014720;-62
2024/03/26 19:53:35;;;;;;;16.70;8.50;;;;;;;9.43;69.73;98785.08;78320;1300;3068426;-64
2024/03/26 19:56:11;;;;;;;16.60;8.80;;;;;;;9.32;70.48;98790.50;79201;1300;3011449;-66
2024/03/26 19:58:42;;;;;;;18.90;8.10;;;;;;;9.28;70.86;98788.15;78251;1298;3048523;-60
2024/03/26 20:01:10;;;;;;;17.90;8.80;;;;;;;9.25;71.12;98792.23;79271;1298;3012060;-62
2024/03/26 20:03:38;;;;;;;15.70;8.70;;;;;;;9.15;72.02;98792.19;78104;1297;3025853;-63
2024/03/26 20:06:05;;;;;;;13.20;8.00;;;;;;;9.09;72.38;98794.98;79325;1301;3018688;-63
2024/03/26 20:08:32;;;;;;;13.70;8.80;;;;;;;9.07;72.54;98799.52;79443;1297;3013333;-61
2024/03/26 20:11:00;;;;;;;21.10;8.20;;;;;;;9.01;72.89;98801.80;78129;1297;3050918;-61
2024/03/26 20:13:27;;;;;;;16.10;8.80;;;;;;;8.94;73.36;98807.15;79462;1298;3018599;-64
2024/03/26 20:15:54;;;;;;;12.60;8.20;;;;;;;8.94;73.45;98807.29;79341;1301;3011593;-64
2024/03/26 20:18:22;;;;;;;13.40;8.10;;;;;;;8.83;74.14;98814.83;77848;1301;3028590;-63
2024/03/26 20:20:56;;;;;;;14.80;7.90;;;;;;;8.83;74.38;98811.86;79444;1300;3013161;-64
2024/03/26 20:23:24;;;;;;;16.50;7.90;;;;;;;8.78;74.60;98814.98;78210;1301;3069180;-63
2024/03/26 20:25:57;;;;;;;15.30;7.60;;;;;;;8.80;74.73;98812.96;79392;1298;3012765;-65
2024/03/26 20:28:25;;;;;;;17.30;7.50;;;;;;;8.73;75.20;98811.23;77925;1298;3049647;-64
2024/03/26 20:30:52;;;;;;;13.80;7.80;;;;;;;8.65;76.10;98814.03;79300;1298;3013812;-62
2024/03/26 20:33:19;;;;;;;13.70;8.00;;;;;;;8.66;76.41;98817.14;79355;1297;3013085;-64
2024/03/26 20:35:47;;;;;;;11.40;7.40;;;;;;;8.61;76.75;98816.89;78320;1297;3051995;-66
2024/03/26 20:38:14;;;;;;;12.00;6.20;;;;;;;8.60;77.08;98816.44;79420;1301;3012856;-60
2024/03/26 20:40:40;;;;;;;11.50;7.10;;;;;;;9.25;75.53;98821.77;79404;1297;3013144;-63
2024/03/26 20:43:08;;;;;;;12.40;7.00;;;;;;;9.62;73.66;98822.09;77962;1301;3028470;-61
2024/03/26 20:45:35;;;;;;;12.20;7.30;;;;;;;9.54;73.73;98821.05;79347;1298;3013334;-63
2024/03/26 20:48:02;;;;;;;11.60;7.30;;;;;;;9.48;73.69;98823.75;79323;1297;3011675;-64
2024/03/26 20:50:30;;;;;;;13.00;8.20;;;;;;;9.35;73.94;98825.30;78112;1301;3026586;-63
2024/03/26 20:52:57;;;;;;;14.40;8.20;;;;;;;9.13;74.86;98834.52;79438;1297;3013391;-61
2024/03/26 20:55:24;;;;;;;17.60;8.50;;;;;;;8.97;75.74;98831.77;79457;1298;3011786;-64
2024/03/26 20:57:51;;;;;;;13.20;8.70;;;;;;;8.80;76.47;98832.81;78308;1298;3049079;-62
2024/03/26 21:00:19;;;;;;;15.30;8.60;;;;;;;8.68;77.20;98833.54;79367;1300;3018474;-67
2024/03/26 21:02:46;;;;;;;15.00;8.50;;;;;;;8.66;77.09;98836.51;79535;1301;3011655;-63
2024/03/26 21:05:14;;;;;;;14.50;8.40;;;;;;;8.58;77.28;98839.45;78018;1298;3051939;-64
2024/03/26 21:07:41;;;;;;;15.40;9.30;;;;;;;8.54;77.42;98845.77;79155;1301;3013567;-62